Accueil
METAR-TAF:

METAR-TAF

Aéroports :

Aéroport de Londres-Southend

Londres-Southend, Angleterre

latitude: 51-34N, longitude: 000-42E, altitude: 15 m

Observation

Le bulletin a été fait il y a 15 minutes, à 05:20 UTC
Vent calme
Température 0°C
Humidité 93%
Pression 1030 hPa
Visibilité 10 km ou plus
pas de nuages en-dessous de 1500 mètres et pas de cumulonimbus.

METAR: EGMC 240520Z 00000KT CAVOK 00/M01 Q1030

Heure: 05:35 (05:35 UTC)

Prévision

Le bulletin a été fait il y a 9 heures et 35 minutes, à 20:00 UTC
Prévision valable du 23 à 21 UTC au 24 à 06 UTC
Vent 5 kt de est
Visibilité 10 km ou plus
Nuages épars à une hauteur de 4500 ft

TAF: EGMC 232000Z 2321/2406 08005KT 9999 SCT045

Observations et prévisions météorologiques de plus de 4000 aéroports (messages METAR et TAF).

Les stations disponibles sont représentées par des disques jaunes et rouges sur la carte.

Passer la souris dessus pour voir le nom de la station.

Cliquer dessus pour voir les observations et prévisions météorologiques.

Pour changer de carte: cliquez sur les boutons verts avec une croix noire pour zoomer, sur le bouton vert avec un tiret pour effectuer un zoom arrière, ou sur les flèches vertes pour les cartes adjacentes.


METAR-TAF: